sensor_id;sensor_type;location;lat;lon;timestamp;temperature;humidity
6102;DHT22;3081;50.584;7.032;2023-05-17T00:00:12;10.00;99.90
6102;DHT22;3081;50.584;7.032;2023-05-17T00:02:39;9.90;99.90
6102;DHT22;3081;50.584;7.032;2023-05-17T00:05:06;9.90;99.90
6102;DHT22;3081;50.584;7.032;2023-05-17T00:07:33;9.80;99.90
6102;DHT22;3081;50.584;7.032;2023-05-17T00:10:00;9.80;99.90
6102;DHT22;3081;50.584;7.032;2023-05-17T00:12:28;9.80;99.90
6102;DHT22;3081;50.584;7.032;2023-05-17T00:14:55;9.70;99.90
6102;DHT22;3081;50.584;7.032;2023-05-17T00:17:22;9.70;99.90
6102;DHT22;3081;50.584;7.032;2023-05-17T00:19:49;9.60;99.90
6102;DHT22;3081;50.584;7.032;2023-05-17T00:22:16;9.60;99.90
6102;DHT22;3081;50.584;7.032;2023-05-17T00:24:43;9.50;99.90
6102;DHT22;3081;50.584;7.032;2023-05-17T00:27:10;9.50;99.90
6102;DHT22;3081;50.584;7.032;2023-05-17T00:29:38;9.30;99.90
6102;DHT22;3081;50.584;7.032;2023-05-17T00:32:05;9.40;99.90
6102;DHT22;3081;50.584;7.032;2023-05-17T00:34:32;9.40;99.90
6102;DHT22;3081;50.584;7.032;2023-05-17T00:36:59;9.30;99.90
6102;DHT22;3081;50.584;7.032;2023-05-17T00:39:26;9.30;99.90
6102;DHT22;3081;50.584;7.032;2023-05-17T00:41:53;9.30;99.90
6102;DHT22;3081;50.584;7.032;2023-05-17T00:44:20;9.30;99.90
6102;DHT22;3081;50.584;7.032;2023-05-17T00:46:48;9.20;99.90
6102;DHT22;3081;50.584;7.032;2023-05-17T00:49:16;9.30;99.90
6102;DHT22;3081;50.584;7.032;2023-05-17T00:51:43;9.30;99.90
6102;DHT22;3081;50.584;7.032;2023-05-17T00:54:11;9.30;99.90
6102;DHT22;3081;50.584;7.032;2023-05-17T00:56:39;9.30;99.90
6102;DHT22;3081;50.584;7.032;2023-05-17T00:59:06;9.30;99.90
6102;DHT22;3081;50.584;7.032;2023-05-17T01:01:33;9.30;99.90
6102;DHT22;3081;50.584;7.032;2023-05-17T01:04:03;9.40;99.90
6102;DHT22;3081;50.584;7.032;2023-05-17T01:06:30;11.70;99.90
6102;DHT22;3081;50.584;7.032;2023-05-17T01:08:57;9.30;99.90
6102;DHT22;3081;50.584;7.032;2023-05-17T01:11:30;9.20;99.90
6102;DHT22;3081;50.584;7.032;2023-05-17T01:14:05;9.00;99.90
6102;DHT22;3081;50.584;7.032;2023-05-17T01:16:38;8.90;99.90
6102;DHT22;3081;50.584;7.032;2023-05-17T01:19:18;8.80;99.90
6102;DHT22;3081;50.584;7.032;2023-05-17T01:21:57;8.80;99.90
6102;DHT22;3081;50.584;7.032;2023-05-17T01:24:36;8.70;99.90
6102;DHT22;3081;50.584;7.032;2023-05-17T01:27:09;8.60;99.90
6102;DHT22;3081;50.584;7.032;2023-05-17T01:29:37;8.50;99.90
6102;DHT22;3081;50.584;7.032;2023-05-17T01:32:06;8.50;99.90
6102;DHT22;3081;50.584;7.032;2023-05-17T01:34:34;8.50;99.90
6102;DHT22;3081;50.584;7.032;2023-05-17T01:37:01;8.40;99.90
6102;DHT22;3081;50.584;7.032;2023-05-17T01:39:28;8.40;99.90
6102;DHT22;3081;50.584;7.032;2023-05-17T01:42:01;8.30;99.90
6102;DHT22;3081;50.584;7.032;2023-05-17T01:44:35;8.30;99.90
6102;DHT22;3081;50.584;7.032;2023-05-17T01:47:12;8.20;99.90
6102;DHT22;3081;50.584;7.032;2023-05-17T01:49:44;8.30;99.90
6102;DHT22;3081;50.584;7.032;2023-05-17T01:52:15;8.30;99.90
6102;DHT22;3081;50.584;7.032;2023-05-17T01:54:46;8.40;99.90
6102;DHT22;3081;50.584;7.032;2023-05-17T01:57:14;8.40;99.90
6102;DHT22;3081;50.584;7.032;2023-05-17T01:59:43;8.30;99.90
6102;DHT22;3081;50.584;7.032;2023-05-17T02:02:11;8.40;99.90
6102;DHT22;3081;50.584;7.032;2023-05-17T02:04:38;8.40;99.90
6102;DHT22;3081;50.584;7.032;2023-05-17T02:07:05;8.40;99.90
6102;DHT22;3081;50.584;7.032;2023-05-17T02:09:32;8.50;99.90
6102;DHT22;3081;50.584;7.032;2023-05-17T02:11:59;8.50;99.90
6102;DHT22;3081;50.584;7.032;2023-05-17T02:14:26;8.50;99.90
6102;DHT22;3081;50.584;7.032;2023-05-17T02:16:54;8.50;99.90
6102;DHT22;3081;50.584;7.032;2023-05-17T02:19:21;8.50;99.90
6102;DHT22;3081;50.584;7.032;2023-05-17T02:21:48;8.50;99.90
6102;DHT22;3081;50.584;7.032;2023-05-17T02:24:15;8.50;99.90
6102;DHT22;3081;50.584;7.032;2023-05-17T02:26:42;8.60;99.90
6102;DHT22;3081;50.584;7.032;2023-05-17T02:29:10;8.60;99.90
6102;DHT22;3081;50.584;7.032;2023-05-17T02:31:37;8.60;99.90
6102;DHT22;3081;50.584;7.032;2023-05-17T02:34:05;8.70;99.90
6102;DHT22;3081;50.584;7.032;2023-05-17T02:36:32;8.70;99.90
6102;DHT22;3081;50.584;7.032;2023-05-17T02:38:59;8.70;99.90
6102;DHT22;3081;50.584;7.032;2023-05-17T02:41:26;8.70;99.90
6102;DHT22;3081;50.584;7.032;2023-05-17T02:43:53;8.60;99.90
6102;DHT22;3081;50.584;7.032;2023-05-17T02:46:20;8.60;99.90
6102;DHT22;3081;50.584;7.032;2023-05-17T02:48:47;8.60;99.90
6102;DHT22;3081;50.584;7.032;2023-05-17T02:51:15;8.50;99.90
6102;DHT22;3081;50.584;7.032;2023-05-17T02:53:42;8.50;99.90
6102;DHT22;3081;50.584;7.032;2023-05-17T02:56:09;8.40;99.90
6102;DHT22;3081;50.584;7.032;2023-05-17T02:58:36;8.40;99.90
6102;DHT22;3081;50.584;7.032;2023-05-17T03:01:03;8.30;99.90
6102;DHT22;3081;50.584;7.032;2023-05-17T03:03:30;8.30;99.90
6102;DHT22;3081;50.584;7.032;2023-05-17T03:05:59;8.30;99.90
6102;DHT22;3081;50.584;7.032;2023-05-17T03:08:28;8.30;99.90
6102;DHT22;3081;50.584;7.032;2023-05-17T03:10:55;8.30;99.90
6102;DHT22;3081;50.584;7.032;2023-05-17T03:13:22;8.30;99.90
6102;DHT22;3081;50.584;7.032;2023-05-17T03:15:49;8.40;99.90
6102;DHT22;3081;50.584;7.032;2023-05-17T03:18:16;8.40;99.90
6102;DHT22;3081;50.584;7.032;2023-05-17T03:20:43;8.40;99.90
6102;DHT22;3081;50.584;7.032;2023-05-17T03:23:10;8.40;99.90
6102;DHT22;3081;50.584;7.032;2023-05-17T03:25:38;8.40;99.90
6102;DHT22;3081;50.584;7.032;2023-05-17T03:28:05;8.40;99.90
6102;DHT22;3081;50.584;7.032;2023-05-17T03:30:32;8.40;99.90
6102;DHT22;3081;50.584;7.032;2023-05-17T03:32:59;8.40;99.90
6102;DHT22;3081;50.584;7.032;2023-05-17T03:35:26;8.50;99.90
6102;DHT22;3081;50.584;7.032;2023-05-17T03:37:53;8.50;99.90
6102;DHT22;3081;50.584;7.032;2023-05-17T03:40:20;8.50;99.90
6102;DHT22;3081;50.584;7.032;2023-05-17T03:42:48;8.50;99.90
6102;DHT22;3081;50.584;7.032;2023-05-17T03:45:16;8.50;99.90
6102;DHT22;3081;50.584;7.032;2023-05-17T03:47:42;8.60;99.90
6102;DHT22;3081;50.584;7.032;2023-05-17T03:50:10;8.60;99.90
6102;DHT22;3081;50.584;7.032;2023-05-17T03:52:37;8.60;99.90
6102;DHT22;3081;50.584;7.032;2023-05-17T03:55:06;8.70;99.90
6102;DHT22;3081;50.584;7.032;2023-05-17T03:57:33;8.70;99.90
6102;DHT22;3081;50.584;7.032;2023-05-17T04:00:02;8.60;99.90
6102;DHT22;3081;50.584;7.032;2023-05-17T04:02:31;8.70;99.90
6102;DHT22;3081;50.584;7.032;2023-05-17T04:04:58;8.70;99.90
6102;DHT22;3081;50.584;7.032;2023-05-17T04:07:25;8.70;99.90
6102;DHT22;3081;50.584;7.032;2023-05-17T04:09:52;8.70;99.90
6102;DHT22;3081;50.584;7.032;2023-05-17T04:12:19;8.80;99.90
6102;DHT22;3081;50.584;7.032;2023-05-17T04:14:46;8.80;99.90
6102;DHT22;3081;50.584;7.032;2023-05-17T04:17:14;8.90;99.90
6102;DHT22;3081;50.584;7.032;2023-05-17T04:19:41;8.70;99.90
6102;DHT22;3081;50.584;7.032;2023-05-17T04:22:08;8.90;99.90
6102;DHT22;3081;50.584;7.032;2023-05-17T04:24:35;9.00;99.90
6102;DHT22;3081;50.584;7.032;2023-05-17T04:27:02;9.00;99.90
6102;DHT22;3081;50.584;7.032;2023-05-17T04:29:29;9.10;99.90
6102;DHT22;3081;50.584;7.032;2023-05-17T04:31:56;9.10;99.90
6102;DHT22;3081;50.584;7.032;2023-05-17T04:34:25;9.20;99.90
6102;DHT22;3081;50.584;7.032;2023-05-17T04:36:52;9.20;99.90
6102;DHT22;3081;50.584;7.032;2023-05-17T04:39:19;9.30;99.90
6102;DHT22;3081;50.584;7.032;2023-05-17T04:41:46;9.20;99.90
6102;DHT22;3081;50.584;7.032;2023-05-17T04:44:13;9.10;99.90
6102;DHT22;3081;50.584;7.032;2023-05-17T04:46:39;9.10;99.90
6102;DHT22;3081;50.584;7.032;2023-05-17T04:49:08;9.20;99.90
6102;DHT22;3081;50.584;7.032;2023-05-17T04:51:36;9.20;99.90
6102;DHT22;3081;50.584;7.032;2023-05-17T04:54:04;9.30;99.90
6102;DHT22;3081;50.584;7.032;2023-05-17T04:56:33;9.30;99.90
6102;DHT22;3081;50.584;7.032;2023-05-17T04:59:01;9.30;99.90
6102;DHT22;3081;50.584;7.032;2023-05-17T05:01:28;9.30;99.90
6102;DHT22;3081;50.584;7.032;2023-05-17T05:03:55;9.30;99.90
6102;DHT22;3081;50.584;7.032;2023-05-17T05:06:22;9.40;99.90
6102;DHT22;3081;50.584;7.032;2023-05-17T05:08:50;9.40;99.90
6102;DHT22;3081;50.584;7.032;2023-05-17T05:11:18;9.40;99.90
6102;DHT22;3081;50.584;7.032;2023-05-17T05:13:45;9.50;99.90
6102;DHT22;3081;50.584;7.032;2023-05-17T05:16:12;9.50;99.90
6102;DHT22;3081;50.584;7.032;2023-05-17T05:18:39;9.50;99.90
6102;DHT22;3081;50.584;7.032;2023-05-17T05:21:06;9.50;99.90
6102;DHT22;3081;50.584;7.032;2023-05-17T05:23:32;9.50;99.90
6102;DHT22;3081;50.584;7.032;2023-05-17T05:26:01;9.40;99.90
6102;DHT22;3081;50.584;7.032;2023-05-17T05:28:28;9.50;99.90
6102;DHT22;3081;50.584;7.032;2023-05-17T05:30:58;9.50;99.90
6102;DHT22;3081;50.584;7.032;2023-05-17T05:33:25;9.60;99.90
6102;DHT22;3081;50.584;7.032;2023-05-17T05:35:52;9.60;99.90
6102;DHT22;3081;50.584;7.032;2023-05-17T05:38:19;9.50;99.90
6102;DHT22;3081;50.584;7.032;2023-05-17T05:40:46;9.50;99.90
6102;DHT22;3081;50.584;7.032;2023-05-17T05:43:15;9.50;99.90
6102;DHT22;3081;50.584;7.032;2023-05-17T05:45:42;9.50;99.90
6102;DHT22;3081;50.584;7.032;2023-05-17T05:48:11;9.60;99.90
6102;DHT22;3081;50.584;7.032;2023-05-17T05:50:40;9.70;99.90
6102;DHT22;3081;50.584;7.032;2023-05-17T05:53:07;9.80;99.90
6102;DHT22;3081;50.584;7.032;2023-05-17T05:55:34;9.80;99.90
6102;DHT22;3081;50.584;7.032;2023-05-17T05:58:01;9.80;99.90
6102;DHT22;3081;50.584;7.032;2023-05-17T06:00:29;9.90;99.90
6102;DHT22;3081;50.584;7.032;2023-05-17T06:02:56;10.00;99.90
6102;DHT22;3081;50.584;7.032;2023-05-17T06:05:23;10.10;99.90
6102;DHT22;3081;50.584;7.032;2023-05-17T06:07:50;10.20;99.90
6102;DHT22;3081;50.584;7.032;2023-05-17T06:10:17;10.20;99.90
6102;DHT22;3081;50.584;7.032;2023-05-17T06:12:44;10.30;99.90
6102;DHT22;3081;50.584;7.032;2023-05-17T06:15:11;10.30;99.90
6102;DHT22;3081;50.584;7.032;2023-05-17T06:17:39;10.30;99.90
6102;DHT22;3081;50.584;7.032;2023-05-17T06:20:07;10.30;99.90
6102;DHT22;3081;50.584;7.032;2023-05-17T06:22:34;10.30;99.90
6102;DHT22;3081;50.584;7.032;2023-05-17T06:25:01;10.50;99.90
6102;DHT22;3081;50.584;7.032;2023-05-17T06:27:30;10.70;99.90
6102;DHT22;3081;50.584;7.032;2023-05-17T06:29:58;10.90;99.90
6102;DHT22;3081;50.584;7.032;2023-05-17T06:32:25;10.90;99.90
6102;DHT22;3081;50.584;7.032;2023-05-17T06:34:54;10.90;99.90
6102;DHT22;3081;50.584;7.032;2023-05-17T06:37:21;10.70;99.90
6102;DHT22;3081;50.584;7.032;2023-05-17T06:39:50;10.60;99.90
6102;DHT22;3081;50.584;7.032;2023-05-17T06:42:18;10.60;99.90
6102;DHT22;3081;50.584;7.032;2023-05-17T06:44:45;10.50;99.90
6102;DHT22;3081;50.584;7.032;2023-05-17T06:47:12;10.50;99.90
6102;DHT22;3081;50.584;7.032;2023-05-17T06:49:39;10.50;99.90
6102;DHT22;3081;50.584;7.032;2023-05-17T06:52:07;10.40;99.90
6102;DHT22;3081;50.584;7.032;2023-05-17T06:54:34;10.40;99.90
6102;DHT22;3081;50.584;7.032;2023-05-17T06:57:01;10.30;99.90
6102;DHT22;3081;50.584;7.032;2023-05-17T06:59:28;10.30;99.90
6102;DHT22;3081;50.584;7.032;2023-05-17T07:01:55;10.30;99.90
6102;DHT22;3081;50.584;7.032;2023-05-17T07:04:24;10.40;99.90
6102;DHT22;3081;50.584;7.032;2023-05-17T07:06:51;10.30;99.90
6102;DHT22;3081;50.584;7.032;2023-05-17T07:09:20;10.40;99.90
6102;DHT22;3081;50.584;7.032;2023-05-17T07:11:47;10.40;99.90
6102;DHT22;3081;50.584;7.032;2023-05-17T07:14:14;10.50;99.90
6102;DHT22;3081;50.584;7.032;2023-05-17T07:16:41;10.60;99.90
6102;DHT22;3081;50.584;7.032;2023-05-17T07:19:08;10.60;99.90
6102;DHT22;3081;50.584;7.032;2023-05-17T07:21:35;10.70;99.90
6102;DHT22;3081;50.584;7.032;2023-05-17T07:24:02;10.70;99.90
6102;DHT22;3081;50.584;7.032;2023-05-17T07:26:30;10.70;99.90
6102;DHT22;3081;50.584;7.032;2023-05-17T07:28:57;10.80;99.90
6102;DHT22;3081;50.584;7.032;2023-05-17T07:31:24;11.00;99.90
6102;DHT22;3081;50.584;7.032;2023-05-17T07:33:51;11.20;99.90
6102;DHT22;3081;50.584;7.032;2023-05-17T07:36:18;11.50;99.90
6102;DHT22;3081;50.584;7.032;2023-05-17T07:38:45;11.90;99.90
6102;DHT22;3081;50.584;7.032;2023-05-17T07:41:11;12.30;99.90
6102;DHT22;3081;50.584;7.032;2023-05-17T07:43:42;12.80;99.90
6102;DHT22;3081;50.584;7.032;2023-05-17T07:46:09;13.20;99.90
6102;DHT22;3081;50.584;7.032;2023-05-17T07:48:36;13.50;99.90
6102;DHT22;3081;50.584;7.032;2023-05-17T07:51:03;13.70;99.90
6102;DHT22;3081;50.584;7.032;2023-05-17T07:53:30;13.70;99.90
6102;DHT22;3081;50.584;7.032;2023-05-17T07:55:57;14.00;99.90
6102;DHT22;3081;50.584;7.032;2023-05-17T07:58:24;14.00;99.90
6102;DHT22;3081;50.584;7.032;2023-05-17T08:00:52;14.10;99.90
6102;DHT22;3081;50.584;7.032;2023-05-17T08:03:19;14.00;99.90
6102;DHT22;3081;50.584;7.032;2023-05-17T08:05:47;14.00;99.90
6102;DHT22;3081;50.584;7.032;2023-05-17T08:08:13;14.00;99.90
6102;DHT22;3081;50.584;7.032;2023-05-17T08:10:40;13.90;99.90
6102;DHT22;3081;50.584;7.032;2023-05-17T08:13:07;13.80;99.90
6102;DHT22;3081;50.584;7.032;2023-05-17T08:15:34;13.80;99.90
6102;DHT22;3081;50.584;7.032;2023-05-17T08:18:03;14.00;99.90
6102;DHT22;3081;50.584;7.032;2023-05-17T08:20:30;14.20;99.90
6102;DHT22;3081;50.584;7.032;2023-05-17T08:22:57;14.40;99.90
6102;DHT22;3081;50.584;7.032;2023-05-17T08:25:24;14.60;99.90
6102;DHT22;3081;50.584;7.032;2023-05-17T08:27:51;14.70;99.90
6102;DHT22;3081;50.584;7.032;2023-05-17T08:30:18;14.70;99.90
6102;DHT22;3081;50.584;7.032;2023-05-17T08:32:45;14.80;99.90
6102;DHT22;3081;50.584;7.032;2023-05-17T08:35:13;14.90;99.90
6102;DHT22;3081;50.584;7.032;2023-05-17T08:37:40;15.00;99.90
6102;DHT22;3081;50.584;7.032;2023-05-17T08:40:08;15.10;99.90
6102;DHT22;3081;50.584;7.032;2023-05-17T08:42:35;15.20;99.90
6102;DHT22;3081;50.584;7.032;2023-05-17T08:45:04;15.40;99.90
6102;DHT22;3081;50.584;7.032;2023-05-17T08:47:34;15.30;99.90
6102;DHT22;3081;50.584;7.032;2023-05-17T08:50:02;15.20;99.90
6102;DHT22;3081;50.584;7.032;2023-05-17T08:52:32;15.00;99.90
6102;DHT22;3081;50.584;7.032;2023-05-17T08:55:01;14.80;99.90
6102;DHT22;3081;50.584;7.032;2023-05-17T08:57:33;14.70;99.90
6102;DHT22;3081;50.584;7.032;2023-05-17T09:00:00;14.90;99.90
6102;DHT22;3081;50.584;7.032;2023-05-17T09:02:29;15.20;99.90
6102;DHT22;3081;50.584;7.032;2023-05-17T09:04:57;15.30;99.90
6102;DHT22;3081;50.584;7.032;2023-05-17T09:07:25;15.20;99.90
6102;DHT22;3081;50.584;7.032;2023-05-17T09:09:53;15.10;99.90
6102;DHT22;3081;50.584;7.032;2023-05-17T09:12:21;15.10;99.90
6102;DHT22;3081;50.584;7.032;2023-05-17T09:14:48;14.90;99.90
6102;DHT22;3081;50.584;7.032;2023-05-17T09:17:16;14.40;99.90
6102;DHT22;3081;50.584;7.032;2023-05-17T09:19:44;14.00;99.90
6102;DHT22;3081;50.584;7.032;2023-05-17T09:22:12;14.10;99.90
6102;DHT22;3081;50.584;7.032;2023-05-17T09:24:40;14.40;99.90
6102;DHT22;3081;50.584;7.032;2023-05-17T09:27:13;15.00;99.90
6102;DHT22;3081;50.584;7.032;2023-05-17T09:29:40;16.00;99.90
6102;DHT22;3081;50.584;7.032;2023-05-17T09:32:13;16.90;99.90
6102;DHT22;3081;50.584;7.032;2023-05-17T09:34:41;16.90;99.90
6102;DHT22;3081;50.584;7.032;2023-05-17T09:37:15;15.90;99.90
6102;DHT22;3081;50.584;7.032;2023-05-17T09:39:43;14.10;99.90
6102;DHT22;3081;50.584;7.032;2023-05-17T09:42:13;14.70;99.90
6102;DHT22;3081;50.584;7.032;2023-05-17T09:44:49;14.80;99.90
6102;DHT22;3081;50.584;7.032;2023-05-17T09:47:22;14.80;99.90
6102;DHT22;3081;50.584;7.032;2023-05-17T09:49:49;14.60;99.90
6102;DHT22;3081;50.584;7.032;2023-05-17T09:52:17;14.50;99.90
6102;DHT22;3081;50.584;7.032;2023-05-17T09:54:51;14.60;99.90
6102;DHT22;3081;50.584;7.032;2023-05-17T09:57:21;15.30;99.90
6102;DHT22;3081;50.584;7.032;2023-05-17T09:59:48;17.00;99.90
6102;DHT22;3081;50.584;7.032;2023-05-17T10:02:20;18.80;99.90
6102;DHT22;3081;50.584;7.032;2023-05-17T10:04:49;20.50;99.00
6102;DHT22;3081;50.584;7.032;2023-05-17T10:07:20;20.80;94.70
6102;DHT22;3081;50.584;7.032;2023-05-17T10:09:47;20.20;94.60
6102;DHT22;3081;50.584;7.032;2023-05-17T10:12:17;19.40;94.60
6102;DHT22;3081;50.584;7.032;2023-05-17T10:14:46;18.50;95.00
6102;DHT22;3081;50.584;7.032;2023-05-17T10:17:14;17.70;95.90
6102;DHT22;3081;50.584;7.032;2023-05-17T10:19:41;17.50;95.70
6102;DHT22;3081;50.584;7.032;2023-05-17T10:22:09;18.30;95.00
6102;DHT22;3081;50.584;7.032;2023-05-17T10:24:37;19.30;93.10
6102;DHT22;3081;50.584;7.032;2023-05-17T10:27:05;20.30;90.80
6102;DHT22;3081;50.584;7.032;2023-05-17T10:29:33;21.10;90.40
6102;DHT22;3081;50.584;7.032;2023-05-17T10:32:05;21.80;83.40
6102;DHT22;3081;50.584;7.032;2023-05-17T10:34:33;22.20;76.30
6102;DHT22;3081;50.584;7.032;2023-05-17T10:37:02;22.40;77.50
6102;DHT22;3081;50.584;7.032;2023-05-17T10:39:30;22.60;73.90
6102;DHT22;3081;50.584;7.032;2023-05-17T10:42:00;22.90;69.30
6102;DHT22;3081;50.584;7.032;2023-05-17T10:44:31;23.10;68.10
6102;DHT22;3081;50.584;7.032;2023-05-17T10:46:58;23.00;67.50
6102;DHT22;3081;50.584;7.032;2023-05-17T10:49:31;23.30;67.80
6102;DHT22;3081;50.584;7.032;2023-05-17T10:51:58;23.90;66.50
6102;DHT22;3081;50.584;7.032;2023-05-17T10:54:34;24.50;64.60
6102;DHT22;3081;50.584;7.032;2023-05-17T10:57:04;24.70;59.30
6102;DHT22;3081;50.584;7.032;2023-05-17T10:59:32;24.80;58.40
6102;DHT22;3081;50.584;7.032;2023-05-17T11:02:02;25.00;57.70
6102;DHT22;3081;50.584;7.032;2023-05-17T11:04:35;25.20;57.60
6102;DHT22;3081;50.584;7.032;2023-05-17T11:10:04;25.50;55.30
6102;DHT22;3081;50.584;7.032;2023-05-17T11:12:33;25.50;56.40
6102;DHT22;3081;50.584;7.032;2023-05-17T11:15:03;25.20;56.70
6102;DHT22;3081;50.584;7.032;2023-05-17T11:17:34;24.90;57.90
6102;DHT22;3081;50.584;7.032;2023-05-17T11:20:05;24.80;57.70
6102;DHT22;3081;50.584;7.032;2023-05-17T11:22:37;24.60;56.60
6102;DHT22;3081;50.584;7.032;2023-05-17T11:25:08;24.50;57.80
6102;DHT22;3081;50.584;7.032;2023-05-17T11:27:38;24.50;58.40
6102;DHT22;3081;50.584;7.032;2023-05-17T11:30:18;24.60;57.00
6102;DHT22;3081;50.584;7.032;2023-05-17T11:32:49;24.60;55.90
6102;DHT22;3081;50.584;7.032;2023-05-17T11:35:21;24.60;55.90
6102;DHT22;3081;50.584;7.032;2023-05-17T11:37:50;24.60;57.10
6102;DHT22;3081;50.584;7.032;2023-05-17T11:40:23;25.40;53.50
6102;DHT22;3081;50.584;7.032;2023-05-17T11:43:12;25.50;54.00
6102;DHT22;3081;50.584;7.032;2023-05-17T11:45:41;25.70;52.00
6102;DHT22;3081;50.584;7.032;2023-05-17T11:48:10;26.10;52.30
6102;DHT22;3081;50.584;7.032;2023-05-17T11:50:38;26.40;53.50
6102;DHT22;3081;50.584;7.032;2023-05-17T11:53:05;26.20;53.80
6102;DHT22;3081;50.584;7.032;2023-05-17T11:55:37;26.00;53.60
6102;DHT22;3081;50.584;7.032;2023-05-17T11:58:06;25.70;53.30
6102;DHT22;3081;50.584;7.032;2023-05-17T12:00:33;25.90;52.90
6102;DHT22;3081;50.584;7.032;2023-05-17T12:03:18;26.40;52.80
6102;DHT22;3081;50.584;7.032;2023-05-17T12:05:47;26.80;52.30
6102;DHT22;3081;50.584;7.032;2023-05-17T12:08:16;27.20;51.30
6102;DHT22;3081;50.584;7.032;2023-05-17T12:10:48;27.10;52.10
6102;DHT22;3081;50.584;7.032;2023-05-17T12:13:16;26.90;50.70
6102;DHT22;3081;50.584;7.032;2023-05-17T12:15:46;26.80;51.80
6102;DHT22;3081;50.584;7.032;2023-05-17T12:18:14;26.60;52.40
6102;DHT22;3081;50.584;7.032;2023-05-17T12:20:56;26.00;52.60
6102;DHT22;3081;50.584;7.032;2023-05-17T12:23:28;25.90;53.40
6102;DHT22;3081;50.584;7.032;2023-05-17T12:26:08;25.70;53.60
6102;DHT22;3081;50.584;7.032;2023-05-17T12:28:37;24.70;53.90
6102;DHT22;3081;50.584;7.032;2023-05-17T12:31:06;24.50;53.70
6102;DHT22;3081;50.584;7.032;2023-05-17T12:33:36;24.90;54.70
6102;DHT22;3081;50.584;7.032;2023-05-17T12:36:08;25.80;52.20
6102;DHT22;3081;50.584;7.032;2023-05-17T12:38:37;27.00;51.10
6102;DHT22;3081;50.584;7.032;2023-05-17T12:41:06;27.60;49.70
6102;DHT22;3081;50.584;7.032;2023-05-17T12:43:34;30.00;50.00
6102;DHT22;3081;50.584;7.032;2023-05-17T12:46:05;29.40;47.90
6102;DHT22;3081;50.584;7.032;2023-05-17T12:48:33;29.70;48.00
6102;DHT22;3081;50.584;7.032;2023-05-17T12:51:09;29.90;46.80
6102;DHT22;3081;50.584;7.032;2023-05-17T12:53:37;29.90;46.00
6102;DHT22;3081;50.584;7.032;2023-05-17T12:56:04;30.00;45.20
6102;DHT22;3081;50.584;7.032;2023-05-17T12:58:32;30.50;44.40
6102;DHT22;3081;50.584;7.032;2023-05-17T13:00:59;31.10;45.40
6102;DHT22;3081;50.584;7.032;2023-05-17T13:03:27;30.80;44.20
6102;DHT22;3081;50.584;7.032;2023-05-17T13:06:03;30.50;43.80
6102;DHT22;3081;50.584;7.032;2023-05-17T13:08:32;30.40;44.80
6102;DHT22;3081;50.584;7.032;2023-05-17T13:11:10;30.80;42.70
6102;DHT22;3081;50.584;7.032;2023-05-17T13:13:37;31.50;42.80
6102;DHT22;3081;50.584;7.032;2023-05-17T13:16:04;32.50;41.90
6102;DHT22;3081;50.584;7.032;2023-05-17T13:18:46;32.50;41.60
6102;DHT22;3081;50.584;7.032;2023-05-17T13:21:13;32.50;41.70
6102;DHT22;3081;50.584;7.032;2023-05-17T13:23:46;32.60;41.30
6102;DHT22;3081;50.584;7.032;2023-05-17T13:26:13;32.40;42.00
6102;DHT22;3081;50.584;7.032;2023-05-17T13:28:40;32.40;42.40
6102;DHT22;3081;50.584;7.032;2023-05-17T13:31:07;33.30;40.70
6102;DHT22;3081;50.584;7.032;2023-05-17T13:33:34;34.50;39.40
6102;DHT22;3081;50.584;7.032;2023-05-17T13:36:01;35.30;37.80
6102;DHT22;3081;50.584;7.032;2023-05-17T13:38:28;34.10;38.70
6102;DHT22;3081;50.584;7.032;2023-05-17T13:40:56;33.90;39.40
6102;DHT22;3081;50.584;7.032;2023-05-17T13:43:23;34.80;39.20
6102;DHT22;3081;50.584;7.032;2023-05-17T13:45:50;34.40;37.70
6102;DHT22;3081;50.584;7.032;2023-05-17T13:48:21;33.00;38.70
6102;DHT22;3081;50.584;7.032;2023-05-17T13:50:48;31.00;40.40
6102;DHT22;3081;50.584;7.032;2023-05-17T13:53:15;29.70;42.20
6102;DHT22;3081;50.584;7.032;2023-05-17T13:55:42;29.70;42.60
6102;DHT22;3081;50.584;7.032;2023-05-17T13:58:11;31.70;41.80
6102;DHT22;3081;50.584;7.032;2023-05-17T14:00:38;34.40;38.90
6102;DHT22;3081;50.584;7.032;2023-05-17T14:03:07;36.00;36.70
6102;DHT22;3081;50.584;7.032;2023-05-17T14:05:34;36.10;37.40
6102;DHT22;3081;50.584;7.032;2023-05-17T14:08:01;33.90;36.90
6102;DHT22;3081;50.584;7.032;2023-05-17T14:10:28;33.30;38.60
6102;DHT22;3081;50.584;7.032;2023-05-17T14:12:55;33.90;37.60
6102;DHT22;3081;50.584;7.032;2023-05-17T14:15:24;33.30;37.30
6102;DHT22;3081;50.584;7.032;2023-05-17T14:17:52;33.20;37.60
6102;DHT22;3081;50.584;7.032;2023-05-17T14:20:19;32.50;38.60
6102;DHT22;3081;50.584;7.032;2023-05-17T14:22:46;30.80;39.80
6102;DHT22;3081;50.584;7.032;2023-05-17T14:25:13;29.00;41.20
6102;DHT22;3081;50.584;7.032;2023-05-17T14:27:40;27.00;43.10
6102;DHT22;3081;50.584;7.032;2023-05-17T14:30:08;25.90;45.80
6102;DHT22;3081;50.584;7.032;2023-05-17T14:32:36;28.00;44.90
6102;DHT22;3081;50.584;7.032;2023-05-17T14:35:05;31.50;40.70
6102;DHT22;3081;50.584;7.032;2023-05-17T14:37:32;33.90;38.70
6102;DHT22;3081;50.584;7.032;2023-05-17T14:39:59;35.70;37.00
6102;DHT22;3081;50.584;7.032;2023-05-17T14:42:26;37.30;35.50
6102;DHT22;3081;50.584;7.032;2023-05-17T14:44:53;39.00;34.20
6102;DHT22;3081;50.584;7.032;2023-05-17T14:47:20;40.20;33.30
6102;DHT22;3081;50.584;7.032;2023-05-17T14:49:48;40.60;32.70
6102;DHT22;3081;50.584;7.032;2023-05-17T14:52:15;38.60;32.10
6102;DHT22;3081;50.584;7.032;2023-05-17T14:54:42;35.60;33.60
6102;DHT22;3081;50.584;7.032;2023-05-17T14:57:09;34.50;35.30
6102;DHT22;3081;50.584;7.032;2023-05-17T14:59:37;34.40;34.50
6102;DHT22;3081;50.584;7.032;2023-05-17T15:02:04;35.40;34.50
6102;DHT22;3081;50.584;7.032;2023-05-17T15:04:32;38.30;34.40
6102;DHT22;3081;50.584;7.032;2023-05-17T15:07:00;40.90;34.00
6102;DHT22;3081;50.584;7.032;2023-05-17T15:09:27;41.30;32.10
6102;DHT22;3081;50.584;7.032;2023-05-17T15:11:55;44.50;30.40
6102;DHT22;3081;50.584;7.032;2023-05-17T15:14:22;48.20;28.80
6102;DHT22;3081;50.584;7.032;2023-05-17T15:16:50;48.90;27.00
6102;DHT22;3081;50.584;7.032;2023-05-17T15:19:18;47.30;27.20
6102;DHT22;3081;50.584;7.032;2023-05-17T15:21:45;46.10;27.50
6102;DHT22;3081;50.584;7.032;2023-05-17T15:24:13;45.30;27.80
6102;DHT22;3081;50.584;7.032;2023-05-17T15:26:41;44.60;27.40
6102;DHT22;3081;50.584;7.032;2023-05-17T15:29:08;43.80;27.90
6102;DHT22;3081;50.584;7.032;2023-05-17T15:31:36;43.70;28.20
6102;DHT22;3081;50.584;7.032;2023-05-17T15:34:03;43.80;28.10
6102;DHT22;3081;50.584;7.032;2023-05-17T15:36:30;44.10;27.90
6102;DHT22;3081;50.584;7.032;2023-05-17T15:38:57;43.40;27.80
6102;DHT22;3081;50.584;7.032;2023-05-17T15:41:25;42.60;28.40
6102;DHT22;3081;50.584;7.032;2023-05-17T15:43:53;41.80;28.70
6102;DHT22;3081;50.584;7.032;2023-05-17T15:46:20;41.20;29.20
6102;DHT22;3081;50.584;7.032;2023-05-17T15:48:47;41.50;29.40
6102;DHT22;3081;50.584;7.032;2023-05-17T15:51:13;42.10;29.10
6102;DHT22;3081;50.584;7.032;2023-05-17T15:53:40;42.60;28.00
6102;DHT22;3081;50.584;7.032;2023-05-17T15:56:07;43.00;27.60
6102;DHT22;3081;50.584;7.032;2023-05-17T15:58:37;43.40;27.60
6102;DHT22;3081;50.584;7.032;2023-05-17T16:01:04;43.20;27.90
6102;DHT22;3081;50.584;7.032;2023-05-17T16:03:31;43.20;27.60
6102;DHT22;3081;50.584;7.032;2023-05-17T16:05:58;42.40;28.30
6102;DHT22;3081;50.584;7.032;2023-05-17T16:08:25;41.50;28.10
6102;DHT22;3081;50.584;7.032;2023-05-17T16:10:52;40.50;28.10
6102;DHT22;3081;50.584;7.032;2023-05-17T16:13:19;38.50;29.50
6102;DHT22;3081;50.584;7.032;2023-05-17T16:15:48;36.30;30.00